Αναφορές METAR

 

LGKZ - Kozani (civ/Army, Greece
Distance from station: ΝΔ 41km
Ενημερώθηκε: 04/12/2020 14:50
Mist, Συννεφιά
Mist, Συννεφιά
 Ανεμος από calm
Ανεμος: Απνοια
Θερμοκρασία: 8°C
Σημείο Δρόσου: 8°C
Υγρασία: 100%
Βαρόμετρο: 1010 hPa
Περίληψη: Mist
Clouds: Συννεφιά
Visibility: 4 km
Cloud details: Μερικώς νεφελώδης 244 m
Σχεδόν νεφελώδης 610 m
Συννεφιά 2134 m
2020/12/04 12:50 LGKZ 041250Z 00000KT 4000 BR SCT008 BKN020 OVC070 08/08 Q1010
LGTS - Thessaloniki/Mik, Greece
Distance from station: Α 64km
Ενημερώθηκε: 04/12/2020 15:50
Βροχή, Nearby thunderstorm, Σχεδόν νεφελώδης
Βροχή, Nearby thunderstorm, Σχεδόν νεφελώδης
 Ανεμος από Δ
Ανεμος: Δ 19 km/h
Θερμοκρασία: 11°C
Σημείο Δρόσου: 11°C
Υγρασία: 100%
Βαρόμετρο: 1010 hPa
Περίληψη: Βροχή, Nearby thunderstorm
Clouds: Σχεδόν νεφελώδης
Visibility: 3 km
Cloud details: Μερικώς νεφελώδης 183 m
Few Clouds 488 m
Σχεδόν νεφελώδης 762 m
2020/12/04 13:50 LGTS 041350Z 28010KT 3000 RA VCTS SCT006 FEW016CB BKN025 11/11 Q1010 NOSIG
 
LGIO - Ioannina, Greece
Distance from station: ΝΔ 149km
Ενημερώθηκε: 04/12/2020 15:50
Ασθενής βροχή, Σχεδόν νεφελώδης
Ασθενής βροχή, Σχεδόν νεφελώδης
 Ανεμος από ΝΑ
Ανεμος: ΝΑ 13 km/h
Θερμοκρασία: 10°C
Wind Chill: 8°C
Σημείο Δρόσου: 9°C
Υγρασία: 94%
Βαρόμετρο: 1010 hPa
Περίληψη: Ασθενής βροχή
Clouds: Σχεδόν νεφελώδης
Visibility: 10 km
Cloud details: Few Clouds 549 m
Σχεδόν νεφελώδης 762 m
Σχεδόν νεφελώδης 1829 m
2020/12/04 13:50 LGIO 041350Z 13007KT 9999 -RA FEW018 BKN025 BKN060 10/09 Q1010
LGBL - Nea Anchialos, Greece
Distance from station: ΝΝΑ 154km
Ενημερώθηκε: 04/12/2020 15:50
Σχεδόν νεφελώδης
Σχεδόν νεφελώδης
 Ανεμος από ΝΑ
Ανεμος: ΝΑ 15 km/h
Θερμοκρασία: 16°C
Σημείο Δρόσου: 11°C
Υγρασία: 72%
Βαρόμετρο: 1010 hPa
Clouds: Σχεδόν νεφελώδης
Visibility: 10 km
Cloud details: Few Clouds 305 m
Μερικώς νεφελώδης 914 m
Σχεδόν νεφελώδης 2134 m
2020/12/04 13:50 LGBL 041350Z 13008KT 9999 FEW010 SCT030 BKN070 16/11 Q1010
 
LGSK - Skiathos Island, Greece
Distance from station: ΝΑ 185km
Ενημερώθηκε: 04/12/2020 11:50
NOT Current
Μερικώς νεφελώδης
Μερικώς νεφελώδης
 Ανεμος από ΝΝΔ
Ανεμος: ΝΝΔ 7 km/h
Θερμοκρασία: 16°C
Σημείο Δρόσου: 12°C
Υγρασία: 77%
Βαρόμετρο: 1010 hPa
Clouds: Μερικώς νεφελώδης
Visibility: 8 km
Cloud details: Few Clouds 244 m
Few Clouds 549 m
Μερικώς νεφελώδης 914 m
2020/12/04 09:50 LGSK 040950Z 20004KT 8000 FEW008 FEW018TCU SCT030 16/12 Q1010
LGKV - Kavala/Chrisoupo, Greece
Distance from station: ΑΒΑ 208km
Ενημερώθηκε: 04/12/2020 15:50
Σχεδόν νεφελώδης
Σχεδόν νεφελώδης
 Ανεμος από ΒΑ
Ανεμος: ΒΑ 17 km/h
Θερμοκρασία: 11°C
Σημείο Δρόσου: 10°C
Υγρασία: 94%
Βαρόμετρο: 1013 hPa
Clouds: Σχεδόν νεφελώδης
Visibility: 6 km
Cloud details: Μερικώς νεφελώδης 366 m
Σχεδόν νεφελώδης 762 m
Σχεδόν νεφελώδης 2134 m
2020/12/04 13:50 LGKV 041350Z 04009KT 6000 SCT012 BKN025 BKN070 11/10 Q1013
 
LGPZ - Preveza/Aktion, Greece
Distance from station: ΝΔ 217km
Ενημερώθηκε: 04/12/2020 15:50
Ασθενής βροχή, Σχεδόν νεφελώδης
Ασθενής βροχή, Σχεδόν νεφελώδης
 Ανεμος από ΑΝΑ
Ανεμος: ΑΝΑ 7 km/h
Θερμοκρασία: 14°C
Σημείο Δρόσου: 13°C
Υγρασία: 94%
Βαρόμετρο: 1010 hPa
Περίληψη: Ασθενής βροχή
Clouds: Σχεδόν νεφελώδης
Visibility: 10 km
Cloud details: Μερικώς νεφελώδης 762 m
Σχεδόν νεφελώδης 2438 m
2020/12/04 13:50 LGPZ 041350Z 11004KT 9999 -RA SCT025 BKN080 14/13 Q1010
LGKR - Ioannis Kapodist, Greece
Distance from station: ΔΝΔ 219km
Ενημερώθηκε: 04/12/2020 15:50
Σχεδόν νεφελώδης
Σχεδόν νεφελώδης
 Ανεμος από ΝΝΑ
Ανεμος: ΝΝΑ 6 km/h
Θερμοκρασία: 15°C
Σημείο Δρόσου: 12°C
Υγρασία: 82%
Βαρόμετρο: 1008 hPa
Clouds: Σχεδόν νεφελώδης
Visibility: 10 km
Cloud details: Few Clouds 549 m
Σχεδόν νεφελώδης 762 m
Σχεδόν νεφελώδης 2438 m
2020/12/04 13:50 LGKR 041350Z 16003KT 9999 FEW018TCU BKN025 BKN080 15/12 Q1008 NOSIG
 
LGSY - Skiros, Greece
Distance from station: ΝΑ 261km
Ενημερώθηκε: 04/12/2020 14:50
Μερικώς νεφελώδης
Μερικώς νεφελώδης
 Ανεμος από ΝΑ
Ανεμος: ΝΑ 19 km/h
Θερμοκρασία: 16°C
Σημείο Δρόσου: 14°C
Υγρασία: 88%
Βαρόμετρο: 1011 hPa
Clouds: Μερικώς νεφελώδης
Visibility: 10 km
Cloud details: Few Clouds 488 m
Μερικώς νεφελώδης 610 m
2020/12/04 12:50 LGSY 041250Z 14010KT 9999 FEW016CB SCT020 16/14 Q1011 RMK SCT080 BKN180 CB NE 20KM BLU
LGLM - Limnos Island Ar, Greece
Distance from station: ΑΝΑ 266km
Ενημερώθηκε: 04/12/2020 15:50
Μερικώς νεφελώδης
Μερικώς νεφελώδης
 Ανεμος από ΝΑ
Ανεμος: ΝΑ 7 km/h
Θερμοκρασία: 17°C
Σημείο Δρόσου: 13°C
Υγρασία: 77%
Βαρόμετρο: 1012 hPa
Clouds: Μερικώς νεφελώδης
Visibility: 10 km
Cloud details: Few Clouds 610 m
Μερικώς νεφελώδης 762 m
2020/12/04 13:50 LGLM 041350Z 14004KT 9999 FEW020 SCT025 17/13 Q1012
 
LGRX - Araxos (civ/Afb), Greece
Distance from station: ΝΝΔ 271km
Ενημερώθηκε: 04/12/2020 15:50
Μερικώς νεφελώδης
Μερικώς νεφελώδης
 Ανεμος από Ν
Ανεμος: Ν 19 km/h
Θερμοκρασία: 17°C
Σημείο Δρόσου: 9°C
Υγρασία: 59%
Βαρόμετρο: 1010 hPa
Clouds: Μερικώς νεφελώδης
Visibility: 10 km
Cloud details: Μερικώς νεφελώδης 549 m
2020/12/04 13:50 LGRX 041350Z 19010KT 9999 SCT018 17/09 Q1010
LGEL - Elefsis (hel-Afb, Greece
Distance from station: ΝΝΑ 297km
Ενημερώθηκε: 04/12/2020 15:50
Σχεδόν νεφελώδης
Σχεδόν νεφελώδης
 Ανεμος από ΝΝΑ
Ανεμος: ΝΝΑ 15 km/h
Θερμοκρασία: 17°C
Σημείο Δρόσου: 12°C
Υγρασία: 73%
Βαρόμετρο: 1010 hPa
Clouds: Σχεδόν νεφελώδης
Visibility: 10 km
Cloud details: Few Clouds 457 m
Σχεδόν νεφελώδης 762 m
2020/12/04 13:50 LGEL 041350Z 16008KT 9999 FEW015TCU BKN025 17/12 Q1010
 
LGAD - Andravida (civ/A, Greece
Distance from station: ΝΝΔ 301km
Ενημερώθηκε: 04/12/2020 15:20
Μερικώς νεφελώδης
Μερικώς νεφελώδης
 Ανεμος από ΝΔ
Ανεμος: ΝΔ 11 km/h
Θερμοκρασία: 18°C
Σημείο Δρόσου: 11°C
Υγρασία: 64%
Βαρόμετρο: 1010 hPa
Clouds: Μερικώς νεφελώδης
Visibility: 10 km
Cloud details: Few Clouds 549 m
Μερικώς νεφελώδης 762 m
2020/12/04 13:20 LGAD 041320Z 22006KT 9999 FEW018 SCT025 18/11 Q1010
LGKF - Kefallinia, Greece
Distance from station: ΝΝΔ 305km
Ενημερώθηκε: 04/12/2020 15:50
Μερικώς νεφελώδης
Μερικώς νεφελώδης
 Ανεμος από calm
Ανεμος: Απνοια
Θερμοκρασία: 18°C
Σημείο Δρόσου: 15°C
Υγρασία: 83%
Βαρόμετρο: 1010 hPa
Clouds: Μερικώς νεφελώδης
Visibility: 10 km
Cloud details: Μερικώς νεφελώδης 366 m
2020/12/04 13:50 LGKF 041350Z 00000KT 9999 SCT012 18/15 Q1010